createdAt,value
2023-03-06T00:01:01.391Z,99737.69
2023-03-06T00:04:04.055Z,99736.72
2023-03-06T00:07:06.591Z,99743.47
2023-03-06T00:10:13.908Z,99736.91
2023-03-06T00:13:19.322Z,99733.59
2023-03-06T00:16:21.892Z,99738.38
2023-03-06T00:19:24.580Z,99731.94
2023-03-06T00:22:27.112Z,99730.13
2023-03-06T00:25:29.571Z,99720.91
2023-03-06T00:28:32.691Z,99722.38
2023-03-06T00:31:36.153Z,99720.59
2023-03-06T00:34:39.165Z,99721.91
2023-03-06T00:37:42.293Z,99714.19
2023-03-06T00:40:44.880Z,99719.75
2023-03-06T00:43:47.464Z,99721.09
2023-03-06T00:46:49.969Z,99718.63
2023-03-06T00:49:52.477Z,99718.28
2023-03-06T00:52:55.983Z,99718.63
2023-03-06T00:56:00.555Z,99725.53
2023-03-06T00:59:03.030Z,99710.72
2023-03-06T01:02:06.118Z,99712.34
2023-03-06T01:05:09.561Z,99709.53
2023-03-06T01:08:13.333Z,99714.00
2023-03-06T01:11:15.864Z,99703.63
2023-03-06T01:14:19.772Z,99708.25
2023-03-06T01:17:22.298Z,99698.03
2023-03-06T01:20:25.015Z,99693.94
2023-03-06T01:23:27.672Z,99697.41
2023-03-06T01:26:31.776Z,99693.09
2023-03-06T01:29:34.279Z,99699.03
2023-03-06T01:32:36.832Z,99691.47
2023-03-06T01:35:39.626Z,99679.44
2023-03-06T01:38:42.573Z,99677.63
2023-03-06T01:41:45.826Z,99675.47
2023-03-06T01:45:06.437Z,99677.78
2023-03-06T01:48:10.597Z,99678.44
2023-03-06T01:51:13.140Z,99678.28
2023-03-06T01:54:32.550Z,99673.78
2023-03-06T01:57:42.808Z,99673.16
2023-03-06T02:00:45.793Z,99677.59
2023-03-06T02:03:52.337Z,99680.06
2023-03-06T02:06:55.740Z,99677.44
2023-03-06T02:09:58.964Z,99682.72
2023-03-06T02:13:01.921Z,99679.41
2023-03-06T02:16:04.791Z,99677.28
2023-03-06T02:19:14.246Z,99670.81
2023-03-06T02:22:17.385Z,99663.91
2023-03-06T02:25:31.684Z,99669.47
2023-03-06T02:28:35.050Z,99668.50
2023-03-06T02:31:37.979Z,99662.88
2023-03-06T02:34:40.437Z,99664.50
2023-03-06T02:37:43.541Z,99658.13
2023-03-06T02:40:49.790Z,99667.97
2023-03-06T02:43:53.265Z,99663.31
2023-03-06T02:46:55.924Z,99671.41
2023-03-06T02:49:58.577Z,99669.78
2023-03-06T02:53:01.164Z,99672.75
2023-03-06T02:56:06.752Z,99671.47
2023-03-06T02:59:09.295Z,99677.38
2023-03-06T03:02:12.215Z,99676.22
2023-03-06T03:05:14.808Z,99673.25
2023-03-06T03:08:20.001Z,99673.06
2023-03-06T03:11:24.414Z,99675.69
2023-03-06T03:14:27.594Z,99679.09
2023-03-06T03:17:30.085Z,99669.25
2023-03-06T03:20:32.722Z,99668.44
2023-03-06T03:23:35.324Z,99668.13
2023-03-06T03:26:37.923Z,99663.84
2023-03-06T03:29:50.028Z,99666.31
2023-03-06T03:32:52.860Z,99660.22
2023-03-06T03:36:01.399Z,99653.94
2023-03-06T03:39:05.306Z,99658.03
2023-03-06T03:42:09.029Z,99651.97
2023-03-06T03:45:12.332Z,99651.63
2023-03-06T03:48:16.284Z,99647.50
2023-03-06T03:51:19.958Z,99652.47
2023-03-06T03:54:26.966Z,99647.50
2023-03-06T03:57:30.634Z,99655.41
2023-03-06T04:00:34.351Z,99646.94
2023-03-06T04:03:45.181Z,99657.00
2023-03-06T04:06:49.462Z,99655.88
2023-03-06T04:09:53.825Z,99657.03
2023-03-06T04:12:56.555Z,99658.53
2023-03-06T04:15:59.798Z,99660.38
2023-03-06T04:19:04.318Z,99662.66
2023-03-06T04:22:07.443Z,99661.66
2023-03-06T04:25:12.804Z,99664.31
2023-03-06T04:28:16.281Z,99660.47
2023-03-06T04:31:19.777Z,99672.22
2023-03-06T04:34:22.531Z,99660.97
2023-03-06T04:37:26.166Z,99661.25
2023-03-06T04:40:33.568Z,99660.75
2023-03-06T04:43:36.098Z,99660.84
2023-03-06T04:46:38.730Z,99655.88
2023-03-06T04:49:41.302Z,99658.00
2023-03-06T04:52:44.054Z,99657.38
2023-03-06T04:55:46.606Z,99657.38
2023-03-06T04:58:52.129Z,99659.50
2023-03-06T05:01:55.454Z,99664.44
2023-03-06T05:04:58.076Z,99658.50
2023-03-06T05:08:00.557Z,99661.09
2023-03-06T05:11:03.847Z,99652.88
2023-03-06T05:14:06.600Z,99656.38
2023-03-06T05:17:09.295Z,99659.19
2023-03-06T05:20:12.770Z,99660.44
2023-03-06T05:23:15.394Z,99665.75
2023-03-06T05:26:17.843Z,99660.06
2023-03-06T05:29:20.800Z,99662.56
2023-03-06T05:32:23.713Z,99662.03
2023-03-06T05:35:26.770Z,99666.03
2023-03-06T05:38:29.544Z,99673.13
2023-03-06T05:41:32.553Z,99666.88
2023-03-06T05:44:35.943Z,99667.53
2023-03-06T05:47:38.585Z,99671.16
2023-03-06T05:50:41.050Z,99665.72
2023-03-06T05:53:43.790Z,99678.41
2023-03-06T05:56:46.248Z,99663.06
2023-03-06T05:59:50.209Z,99679.75
2023-03-06T06:02:52.953Z,99670.66
2023-03-06T06:05:55.490Z,99672.97
2023-03-06T06:08:58.210Z,99675.78
2023-03-06T06:12:03.711Z,99668.56
2023-03-06T06:15:07.269Z,99675.00
2023-03-06T06:18:09.766Z,99675.69
2023-03-06T06:21:14.748Z,99680.13
2023-03-06T06:24:19.576Z,99675.47
2023-03-06T06:27:22.593Z,99678.94
2023-03-06T06:30:25.639Z,99680.47
2023-03-06T06:33:28.151Z,99681.78
2023-03-06T06:36:30.720Z,99676.84
2023-03-06T06:39:33.236Z,99681.56
2023-03-06T06:42:39.839Z,99679.59
2023-03-06T06:45:44.242Z,99681.56
2023-03-06T06:48:54.730Z,99683.88
2023-03-06T06:51:57.653Z,99682.06
2023-03-06T06:55:00.320Z,99685.47
2023-03-06T06:58:02.896Z,99679.81
2023-03-06T07:01:08.921Z,99688.72
2023-03-06T07:04:13.355Z,99682.22
2023-03-06T07:07:16.653Z,99684.69
2023-03-06T07:10:20.947Z,99689.44
2023-03-06T07:13:25.304Z,99688.56
2023-03-06T07:16:31.479Z,99686.25
2023-03-06T07:19:34.782Z,99692.41
2023-03-06T07:22:50.363Z,99696.19
2023-03-06T07:25:55.495Z,99700.31
2023-03-06T07:28:58.966Z,99700.59
2023-03-06T07:32:02.640Z,99701.13
2023-03-06T07:35:22.456Z,99692.63
2023-03-06T07:38:25.839Z,99700.50
2023-03-06T07:41:28.857Z,99711.00
2023-03-06T07:44:40.526Z,99707.06
2023-03-06T07:47:51.035Z,99711.97
2023-03-06T07:51:05.813Z,99710.03
2023-03-06T07:54:08.556Z,99713.56
2023-03-06T07:57:11.149Z,99720.97
2023-03-06T08:00:16.119Z,99721.75
2023-03-06T08:03:18.709Z,99720.44
2023-03-06T08:06:27.679Z,99729.59
2023-03-06T08:09:31.045Z,99727.97
2023-03-06T08:12:33.720Z,99725.13
2023-03-06T08:15:36.450Z,99725.22
2023-03-06T08:18:44.964Z,99725.56
2023-03-06T08:21:48.432Z,99719.81
2023-03-06T08:24:54.974Z,99723.16
2023-03-06T08:27:57.541Z,99724.38
2023-03-06T08:31:10.038Z,99724.19
2023-03-06T08:34:16.203Z,99708.63
2023-03-06T08:37:18.815Z,99717.09
2023-03-06T08:40:24.377Z,99722.09
2023-03-06T08:43:28.680Z,99718.69
2023-03-06T08:46:32.440Z,99718.72
2023-03-06T08:49:36.102Z,99721.78
2023-03-06T08:52:38.871Z,99726.78
2023-03-06T08:55:41.400Z,99734.84
2023-03-06T08:58:44.280Z,99727.63
2023-03-06T09:01:46.948Z,99732.59
2023-03-06T09:04:49.829Z,99739.06
2023-03-06T09:07:53.549Z,99723.44
2023-03-06T09:10:56.131Z,99721.22
2023-03-06T09:13:59.355Z,99714.13
2023-03-06T09:17:02.009Z,99708.38
2023-03-06T09:20:06.337Z,99712.44
2023-03-06T09:23:09.731Z,99698.44
2023-03-06T09:26:12.806Z,99689.75
2023-03-06T09:29:17.209Z,99686.53
2023-03-06T09:32:24.804Z,99690.59
2023-03-06T09:35:28.036Z,99687.38
2023-03-06T09:38:30.982Z,99686.50
2023-03-06T09:41:36.946Z,99692.38
2023-03-06T09:44:41.258Z,99687.47
2023-03-06T09:48:01.987Z,99676.66
2023-03-06T09:51:36.284Z,99675.56
2023-03-06T09:54:56.034Z,99673.22
2023-03-06T09:58:21.943Z,99675.78
2023-03-06T10:01:33.070Z,99667.38
2023-03-06T10:04:44.168Z,99678.16
2023-03-06T10:08:01.454Z,99677.44
2023-03-06T10:11:09.965Z,99666.13
2023-03-06T10:14:32.998Z,99669.28
2023-03-06T10:17:38.683Z,99671.44
2023-03-06T10:20:47.529Z,99673.59
2023-03-06T10:23:58.683Z,99672.53
2023-03-06T10:27:23.599Z,99676.78
2023-03-06T10:30:38.482Z,99667.59
2023-03-06T10:33:55.638Z,99658.09
2023-03-06T10:37:02.568Z,99659.25
2023-03-06T10:40:16.941Z,99655.25
2023-03-06T10:43:19.593Z,99646.81
2023-03-06T10:46:31.196Z,99638.00
2023-03-06T10:49:36.836Z,99635.16
2023-03-06T10:52:41.838Z,99633.06
2023-03-06T10:55:52.367Z,99624.13
2023-03-06T10:59:29.427Z,99615.59
2023-03-06T11:02:39.599Z,99610.72
2023-03-06T11:06:04.611Z,99603.69
2023-03-06T11:09:20.257Z,99593.50
2023-03-06T11:12:27.869Z,99593.06
2023-03-06T11:15:33.068Z,99586.09
2023-03-06T11:18:38.132Z,99573.22
2023-03-06T11:21:40.700Z,99583.25
2023-03-06T11:24:54.330Z,99566.88
2023-03-06T11:28:08.264Z,99564.72
2023-03-06T11:31:22.749Z,99559.19
2023-03-06T11:34:41.965Z,99547.28
2023-03-06T11:37:59.922Z,99545.50
2023-03-06T11:41:14.093Z,99528.28
2023-03-06T11:44:25.857Z,99524.19
2023-03-06T11:47:42.704Z,99518.47
2023-03-06T11:50:53.578Z,99518.09
2023-03-06T11:54:00.935Z,99506.44
2023-03-06T11:57:17.374Z,99505.81
2023-03-06T12:00:50.450Z,99505.94
2023-03-06T12:04:07.187Z,99491.91
2023-03-06T12:07:31.412Z,99488.41
2023-03-06T12:11:12.510Z,99478.81
2023-03-06T12:14:50.393Z,99475.53
2023-03-06T12:18:30.527Z,99471.41
2023-03-06T12:21:57.738Z,99476.06
2023-03-06T12:25:19.407Z,99473.53
2023-03-06T12:28:54.394Z,99468.63
2023-03-06T12:32:16.041Z,99468.25
2023-03-06T12:35:59.059Z,99466.19
2023-03-06T12:39:40.728Z,99463.16
2023-03-06T12:43:02.163Z,99454.97
2023-03-06T12:46:17.887Z,99456.91
2023-03-06T12:49:31.844Z,99457.47
2023-03-06T12:52:37.609Z,99463.88
2023-03-06T12:55:44.308Z,99448.88
2023-03-06T12:58:52.005Z,99444.09
2023-03-06T13:02:35.452Z,99445.19
2023-03-06T13:05:53.172Z,99442.91
2023-03-06T13:09:17.266Z,99437.81
2023-03-06T13:12:42.081Z,99425.91
2023-03-06T13:15:47.114Z,99438.22
2023-03-06T13:18:55.066Z,99434.53
2023-03-06T13:21:57.963Z,99428.09
2023-03-06T13:25:18.560Z,99424.28
2023-03-06T13:28:45.707Z,99425.81
2023-03-06T13:31:54.759Z,99426.56
2023-03-06T13:34:57.663Z,99425.63
2023-03-06T13:38:00.648Z,99419.94
2023-03-06T13:41:25.170Z,99410.75
2023-03-06T13:44:28.624Z,99407.91
2023-03-06T13:48:22.631Z,99408.94
2023-03-06T13:51:31.064Z,99410.91
2023-03-06T13:55:11.158Z,99410.47
2023-03-06T13:58:29.225Z,99399.53
2023-03-06T14:01:43.691Z,99398.41
2023-03-06T14:04:53.639Z,99403.06
2023-03-06T14:08:32.008Z,99401.19
2023-03-06T14:11:36.845Z,99401.00
2023-03-06T14:14:44.231Z,99400.09
2023-03-06T14:18:18.038Z,99403.84
2023-03-06T14:21:54.830Z,99393.78
2023-03-06T14:25:04.044Z,99385.69
2023-03-06T14:28:14.052Z,99379.91
2023-03-06T14:31:20.496Z,99375.56
2023-03-06T14:34:28.697Z,99370.75
2023-03-06T14:37:34.590Z,99364.63
2023-03-06T14:40:43.959Z,99370.13
2023-03-06T14:43:46.890Z,99369.91
2023-03-06T14:46:55.305Z,99366.69
2023-03-06T14:50:27.142Z,99364.09
2023-03-06T14:53:34.036Z,99358.16
2023-03-06T14:56:46.087Z,99363.25
2023-03-06T14:59:48.546Z,99359.00
2023-03-06T15:02:54.075Z,99356.38
2023-03-06T15:05:57.277Z,99353.72
2023-03-06T15:09:07.479Z,99350.44
2023-03-06T15:12:23.698Z,99348.56
2023-03-06T15:15:30.659Z,99349.53
2023-03-06T15:18:40.657Z,99341.44
2023-03-06T15:21:48.054Z,99349.00
2023-03-06T15:24:51.538Z,99340.56
2023-03-06T15:28:03.046Z,99338.50
2023-03-06T15:31:23.565Z,99344.47
2023-03-06T15:34:27.650Z,99337.78
2023-03-06T15:37:30.105Z,99338.19
2023-03-06T15:40:33.429Z,99336.72
2023-03-06T15:43:39.703Z,99338.69
2023-03-06T15:46:42.478Z,99340.31
2023-03-06T15:49:45.028Z,99337.28
2023-03-06T15:52:48.809Z,99337.38
2023-03-06T15:55:52.667Z,99342.69
2023-03-06T15:58:57.536Z,99346.31
2023-03-06T16:02:04.325Z,99337.69
2023-03-06T16:05:15.556Z,99343.75
2023-03-06T16:08:18.031Z,99343.53
2023-03-06T16:11:41.919Z,99350.09
2023-03-06T16:14:47.908Z,99343.75
2023-03-06T16:17:50.433Z,99358.66
2023-03-06T16:20:53.099Z,99351.63
2023-03-06T16:23:56.154Z,99354.09
2023-03-06T16:27:00.633Z,99346.78
2023-03-06T16:30:04.695Z,99357.25
2023-03-06T16:33:11.328Z,99356.41
2023-03-06T16:36:22.578Z,99351.31
2023-03-06T16:39:25.110Z,99344.06
2023-03-06T16:42:27.956Z,99355.78
2023-03-06T16:45:30.874Z,99363.53
2023-03-06T16:48:34.648Z,99358.16
2023-03-06T16:51:39.897Z,99362.22
2023-03-06T16:54:44.599Z,99362.63
2023-03-06T16:57:47.562Z,99361.72
2023-03-06T17:00:50.690Z,99364.16
2023-03-06T17:03:53.571Z,99368.56
2023-03-06T17:06:56.229Z,99371.59
2023-03-06T17:09:59.024Z,99369.31
2023-03-06T17:13:02.904Z,99369.84
2023-03-06T17:16:06.462Z,99359.13
2023-03-06T17:19:15.210Z,99357.91
2023-03-06T17:22:19.160Z,99364.28
2023-03-06T17:25:21.700Z,99352.94
2023-03-06T17:28:24.309Z,99345.72
2023-03-06T17:31:28.328Z,99346.03
2023-03-06T17:34:31.241Z,99355.72
2023-03-06T17:37:33.884Z,99338.56
2023-03-06T17:40:36.476Z,99341.34
2023-03-06T17:43:39.571Z,99344.56
2023-03-06T17:46:43.504Z,99330.69
2023-03-06T17:49:46.393Z,99331.34
2023-03-06T17:52:49.274Z,99335.16
2023-03-06T17:55:52.406Z,99337.00
2023-03-06T17:58:55.496Z,99338.69
2023-03-06T18:02:00.987Z,99352.84
2023-03-06T18:05:04.313Z,99353.53
2023-03-06T18:08:10.232Z,99363.03
2023-03-06T18:11:14.077Z,99361.09
2023-03-06T18:14:16.911Z,99353.06
2023-03-06T18:17:20.511Z,99353.78
2023-03-06T18:20:23.534Z,99354.47
2023-03-06T18:23:27.073Z,99347.66
2023-03-06T18:26:30.241Z,99362.03
2023-03-06T18:29:33.134Z,99364.34
2023-03-06T18:32:35.987Z,99346.53
2023-03-06T18:35:38.497Z,99339.47
2023-03-06T18:38:44.004Z,99339.28
2023-03-06T18:41:46.838Z,99350.81
2023-03-06T18:44:49.660Z,99352.81
2023-03-06T18:47:52.526Z,99349.81
2023-03-06T18:50:55.114Z,99337.28
2023-03-06T18:53:59.115Z,99336.81
2023-03-06T18:57:02.016Z,99331.16
2023-03-06T19:00:06.416Z,99318.31
2023-03-06T19:03:10.421Z,99330.88
2023-03-06T19:06:15.457Z,99330.28
2023-03-06T19:09:18.824Z,99328.63
2023-03-06T19:12:21.789Z,99328.69
2023-03-06T19:15:24.273Z,99337.78
2023-03-06T19:18:28.352Z,99334.88
2023-03-06T19:21:31.583Z,99340.41
2023-03-06T19:24:34.639Z,99346.75
2023-03-06T19:27:39.211Z,99350.22
2023-03-06T19:30:41.940Z,99352.22
2023-03-06T19:33:45.057Z,99353.34
2023-03-06T19:36:50.140Z,99346.97
2023-03-06T19:39:52.546Z,99342.88
2023-03-06T19:42:55.686Z,99338.78
2023-03-06T19:45:58.633Z,99325.38
2023-03-06T19:49:10.030Z,99317.81
2023-03-06T19:52:12.818Z,99317.38
2023-03-06T19:55:15.713Z,99317.72
2023-03-06T19:58:19.100Z,99321.84
2023-03-06T20:01:24.932Z,99316.56
2023-03-06T20:04:32.375Z,99327.94
2023-03-06T20:07:35.624Z,99319.94
2023-03-06T20:10:38.514Z,99326.47
2023-03-06T20:13:47.237Z,99323.28
2023-03-06T20:16:50.898Z,99318.72
2023-03-06T20:19:54.071Z,99324.63
2023-03-06T20:22:56.791Z,99331.56
2023-03-06T20:26:05.115Z,99330.38
2023-03-06T20:29:09.530Z,99325.44
2023-03-06T20:32:13.477Z,99327.44
2023-03-06T20:35:16.477Z,99344.75
2023-03-06T20:38:19.304Z,99349.84
2023-03-06T20:41:27.156Z,99353.63
2023-03-06T20:44:30.073Z,99356.44
2023-03-06T20:47:32.857Z,99354.69
2023-03-06T20:50:35.595Z,99335.09
2023-03-06T20:53:38.355Z,99323.09
2023-03-06T20:56:42.688Z,99319.97
2023-03-06T20:59:45.819Z,99317.94
2023-03-06T21:02:48.516Z,99324.75
2023-03-06T21:05:51.373Z,99316.09
2023-03-06T21:08:55.858Z,99323.09
2023-03-06T21:11:58.399Z,99327.44
2023-03-06T21:15:01.018Z,99332.53
2023-03-06T21:18:03.870Z,99336.59
2023-03-06T21:21:09.828Z,99328.91
2023-03-06T21:24:12.688Z,99334.38
2023-03-06T21:27:15.410Z,99339.53
2023-03-06T21:30:18.317Z,99353.72
2023-03-06T21:33:21.246Z,99359.81
2023-03-06T21:36:24.030Z,99366.84
2023-03-06T21:39:26.922Z,99359.19
2023-03-06T21:42:29.823Z,99351.41
2023-03-06T21:45:32.569Z,99354.47
2023-03-06T21:48:35.658Z,99352.34
2023-03-06T21:51:38.615Z,99355.56
2023-03-06T21:54:41.782Z,99342.09
2023-03-06T21:57:49.323Z,99336.38
2023-03-06T22:00:52.049Z,99334.53
2023-03-06T22:03:58.579Z,99331.75
2023-03-06T22:07:01.176Z,99330.00
2023-03-06T22:10:05.664Z,99337.34
2023-03-06T22:13:08.328Z,99334.38
2023-03-06T22:16:12.067Z,99343.31
2023-03-06T22:19:15.673Z,99336.53
2023-03-06T22:22:18.329Z,99341.28
2023-03-06T22:25:20.832Z,99341.44
2023-03-06T22:28:23.730Z,99336.84
2023-03-06T22:31:28.747Z,99333.38
2023-03-06T22:34:31.856Z,99333.34
2023-03-06T22:37:34.346Z,99325.22
2023-03-06T22:40:38.137Z,99328.81
2023-03-06T22:43:42.211Z,99332.28
2023-03-06T22:46:45.921Z,99333.94
2023-03-06T22:49:48.463Z,99331.94
2023-03-06T22:52:50.942Z,99323.06
2023-03-06T22:55:53.485Z,99325.03
2023-03-06T22:58:57.888Z,99326.16
2023-03-06T23:02:00.427Z,99333.72
2023-03-06T23:05:03.796Z,99332.72
2023-03-06T23:08:06.242Z,99333.91
2023-03-06T23:11:11.092Z,99340.63
2023-03-06T23:14:32.839Z,99336.47
2023-03-06T23:17:54.296Z,99340.84
2023-03-06T23:21:18.466Z,99338.78
2023-03-06T23:24:39.298Z,99346.75
2023-03-06T23:27:41.912Z,99346.13
2023-03-06T23:30:44.887Z,99351.25
2023-03-06T23:33:48.112Z,99359.66
2023-03-06T23:36:51.606Z,99347.53
2023-03-06T23:39:55.796Z,99340.50
2023-03-06T23:42:58.481Z,99336.38
2023-03-06T23:46:01.677Z,99335.09
2023-03-06T23:49:04.844Z,99328.22
2023-03-06T23:52:07.409Z,99334.63
2023-03-06T23:55:10.392Z,99347.00
2023-03-06T23:58:13.739Z,99346.84
